Raymond, South Dakota
Current Conditions -  °F | °C
As of 1:53 PM on Thursday 23 Oct 2014 (Local Time) from KATY Reporting Station
Clear Clear  
Wind Chill: 67°   Ceiling: Unl
Heat Index: 67°   Visibility: 10mi
Dew Point: 45°   Wind: 13mph
Humidity: 45%   Direction: 210°SSW
Pressure: 29.95"   Gusts: NA
Location:  44.91°N, 97.94°W
Report Text: KATY 231853Z AUTO 21011KT 10SM CLR 19/07 A2995 RMK AO2 SLP142 T01940072
Loading
Personal Weather Stations






























Interactive Weather Map
Tropical Storm Tracking
New forecast layout! Learn more

10-Day Weather Forecast

Advertisements
Track Severe Weather on mobile